Observation data for Post on 08/14/2019      Previous  Date  Next       Current Mesonet Observations  Soil Data  Daily Summary Page  Observations in Plain Language
KPT1 140500Z 05008KT 28/17 A3008 RMK A01 T02820166  RH  052%=      5-min Rain = 0
KPT1 140505Z 05008KT 28/17 A3008 RMK A01 T02810167  RH  052%=      5-min Rain = 0
KPT1 140510Z 06007KT 28/17 A3008 RMK A01 T02810167  RH  053%=      5-min Rain = 0
KPT1 140515Z 06007KT 28/17 A3008 RMK A01 T02800167  RH  053%=      5-min Rain = 0
KPT1 140520Z 06007KT 28/17 A3008 RMK A01 T02790168  RH  053%=      5-min Rain = 0
KPT1 140525Z 06007KT 28/17 A3008 RMK A01 T02780168  RH  054%=      5-min Rain = 0
KPT1 140530Z 06007KT 28/17 A3008 RMK A01 T02760168  RH  054%=      5-min Rain = 0
KPT1 140535Z 05008KT 28/17 A3008 RMK A01 T02770169  RH  054%=      5-min Rain = 0
KPT1 140540Z 05008KT 28/17 A3008 RMK A01 T02760169  RH  055%=      5-min Rain = 0
KPT1 140545Z 05007KT 28/17 A3008 RMK A01 T02750169  RH  055%=      5-min Rain = 0
KPT1 140550Z 06006KT 27/17 A3008 RMK A01 T02740169  RH  055%=      5-min Rain = 0
KPT1 140555Z 07007KT 27/17 A3008 RMK A01 T02740169  RH  055%=      5-min Rain = 0
KPT1 140600Z 06007KT 27/17 A3008 RMK A01 T02730169  RH  056%=      5-min Rain = 0
KPT1 140605Z 07007KT 27/17 A3008 RMK A01 T02730170  RH  056%=      5-min Rain = 0
KPT1 140610Z 07006KT 27/17 A3008 RMK A01 T02720170  RH  056%=      5-min Rain = 0
KPT1 140615Z 07007KT 27/17 A3008 RMK A01 T02710170  RH  057%=      5-min Rain = 0
KPT1 140620Z 06007KT 27/17 A3008 RMK A01 T02700171  RH  057%=      5-min Rain = 0
KPT1 140625Z 06006KT 27/17 A3009 RMK A01 T02690171  RH  058%=      5-min Rain = 0
KPT1 140630Z 06006KT 27/17 A3009 RMK A01 T02680172  RH  058%=      5-min Rain = 0
KPT1 140635Z 07007KT 27/17 A3009 RMK A01 T02680172  RH  059%=      5-min Rain = 0
KPT1 140640Z 06008KT 27/17 A3009 RMK A01 T02680172  RH  059%=      5-min Rain = 0
KPT1 140645Z 07007KT 27/17 A3009 RMK A01 T02680173  RH  059%=      5-min Rain = 0
KPT1 140650Z 07007KT 27/17 A3009 RMK A01 T02670173  RH  059%=      5-min Rain = 0
KPT1 140655Z 07007KT 27/17 A3009 RMK A01 T02670173  RH  059%=      5-min Rain = 0
KPT1 140700Z 05008KT 27/17 A3009 RMK A01 T02670173  RH  059%=      5-min Rain = 0
KPT1 140705Z 05008G13KT 27/17 A3009 RMK A01 T02670174  RH  059%=      5-min Rain = 0
KPT1 140710Z 06009KT 27/17 A301 RMK A01 T02680174  RH  059%=      5-min Rain = 0
KPT1 140715Z 06009KT 27/17 A301 RMK A01 T02690174  RH  059%=      5-min Rain = 0
KPT1 140720Z 05008KT 27/17 A301 RMK A01 T02690174  RH  059%=      5-min Rain = 0
KPT1 140725Z 05008KT 27/17 A301 RMK A01 T02690174  RH  059%=      5-min Rain = 0
KPT1 140730Z 05009G14KT 27/17 A301 RMK A01 T02690174  RH  059%=      5-min Rain = 0
KPT1 140735Z 05008KT 27/17 A301 RMK A01 T02680174  RH  059%=      5-min Rain = 0
KPT1 140740Z 05007KT 27/17 A301 RMK A01 T02680174  RH  059%=      5-min Rain = 0
KPT1 140745Z 04008KT 27/17 A301 RMK A01 T02680174  RH  059%=      5-min Rain = 0
KPT1 140750Z 04008KT 27/17 A301 RMK A01 T02670174  RH  059%=      5-min Rain = 0
KPT1 140755Z 04007KT 27/17 A301 RMK A01 T02660173  RH  060%=      5-min Rain = 0
KPT1 140800Z 05008KT 26/17 A3009 RMK A01 T02640173  RH  060%=      5-min Rain = 0
KPT1 140805Z 05010KT 26/17 A3009 RMK A01 T02630173  RH  061%=      5-min Rain = 0
KPT1 140810Z 03007KT 26/17 A3009 RMK A01 T02630173  RH  061%=      5-min Rain = 0
KPT1 140815Z 02009KT 26/17 A3009 RMK A01 T02620173  RH  061%=      5-min Rain = 0
KPT1 140820Z 02011KT 26/17 A3009 RMK A01 T02620173  RH  061%=      5-min Rain = 0
KPT1 140825Z 03010KT 26/17 A3009 RMK A01 T02620173  RH  061%=      5-min Rain = 0
KPT1 140830Z 03011KT 26/17 A3009 RMK A01 T02610172  RH  061%=      5-min Rain = 0
KPT1 140835Z 03012KT 26/17 A3009 RMK A01 T02590172  RH  062%=      5-min Rain = 0
KPT1 140840Z 03011KT 26/17 A3009 RMK A01 T02580172  RH  062%=      5-min Rain = 0
KPT1 140845Z 03011KT 26/17 A3009 RMK A01 T02570172  RH  062%=      5-min Rain = 0
KPT1 140850Z 03008KT 26/17 A3008 RMK A01 T02560172  RH  063%=      5-min Rain = 0
KPT1 140855Z 03008KT 25/17 A3008 RMK A01 T02540171  RH  063%=      5-min Rain = 0
KPT1 140900Z 02007KT 25/17 A3008 RMK A01 T02530171  RH  064%=      5-min Rain = 0
KPT1 140905Z 03006KT 25/17 A3008 RMK A01 T02520171  RH  064%=      5-min Rain = 0
KPT1 140910Z 04005KT 25/17 A3008 RMK A01 T02520171  RH  064%=      5-min Rain = 0
KPT1 140915Z 04005KT 25/17 A3008 RMK A01 T02510171  RH  064%=      5-min Rain = 0
KPT1 140920Z 04005KT 25/17 A3008 RMK A01 T02490171  RH  065%=      5-min Rain = 0
KPT1 140925Z 04005KT 25/17 A3008 RMK A01 T02490171  RH  065%=      5-min Rain = 0
KPT1 140930Z 04006KT 25/17 A3008 RMK A01 T02480171  RH  066%=      5-min Rain = 0
KPT1 140935Z 03008KT 25/17 A3009 RMK A01 T02480172  RH  066%=      5-min Rain = 0
KPT1 140940Z 03008KT 25/17 A3008 RMK A01 T02490172  RH  066%=      5-min Rain = 0
KPT1 140945Z 04006KT 25/17 A3009 RMK A01 T02480172  RH  066%=      5-min Rain = 0
KPT1 140950Z 03006KT 25/17 A3009 RMK A01 T02470172  RH  066%=      5-min Rain = 0
KPT1 140955Z 04006KT 25/17 A3009 RMK A01 T02470172  RH  066%=      5-min Rain = 0
KPT1 141000Z 03006KT 25/17 A3009 RMK A01 T02470172  RH  066%=      5-min Rain = 0
KPT1 141005Z 03007KT 25/17 A3009 RMK A01 T02470172  RH  066%=      5-min Rain = 0
KPT1 141010Z 04007KT 25/17 A3009 RMK A01 T02480172  RH  066%=      5-min Rain = 0
KPT1 141015Z 03007G12KT 25/17 A3009 RMK A01 T02480172  RH  066%=      5-min Rain = 0
KPT1 141020Z 03008KT 25/17 A301 RMK A01 T02480172  RH  066%=      5-min Rain = 0
KPT1 141025Z 04007KT 25/17 A301 RMK A01 T02470172  RH  066%=      5-min Rain = 0
KPT1 141030Z 04007KT 25/17 A301 RMK A01 T02460171  RH  066%=      5-min Rain = 0
KPT1 141035Z 04007KT 25/17 A301 RMK A01 T02450171  RH  067%=      5-min Rain = 0
KPT1 141040Z 03008KT 25/17 A301 RMK A01 T02450172  RH  067%=      5-min Rain = 0
KPT1 141045Z 03009KT 25/17 A3011 RMK A01 T02450171  RH  067%=      5-min Rain = 0
KPT1 141050Z 04009KT 25/17 A3011 RMK A01 T02460172  RH  067%=      5-min Rain = 0
KPT1 141055Z 05008KT 25/17 A3011 RMK A01 T02450171  RH  067%=      5-min Rain = 0
KPT1 141100Z 03012G20KT 24/17 A3012 RMK A01 T02440170  RH  067%=      5-min Rain = 0
KPT1 141105Z 04016G23KT 24/17 A3012 RMK A01 T02430165  RH  065%=      5-min Rain = 0
KPT1 141110Z 03017G24KT 24/16 A3012 RMK A01 T02410163  RH  065%=      5-min Rain = 0
KPT1 141115Z 04013KT 24/16 A3013 RMK A01 T02400163  RH  065%=      5-min Rain = 0
KPT1 141120Z 03015KT 24/16 A3013 RMK A01 T02390163  RH  066%=      5-min Rain = 0
KPT1 141125Z 04014KT 24/16 A3013 RMK A01 T02380164  RH  066%=      5-min Rain = 0
KPT1 141130Z 03012G17KT 24/16 A3014 RMK A01 T02370164  RH  067%=      5-min Rain = 0
KPT1 141135Z 03014G19KT 24/17 A3014 RMK A01 T02360165  RH  067%=      5-min Rain = 0
KPT1 141140Z 03014G19KT 24/17 A3014 RMK A01 T02350165  RH  068%=      5-min Rain = 0
KPT1 141145Z 03012KT 23/17 A3014 RMK A01 T02330165  RH  069%=      5-min Rain = 0
KPT1 141150Z 03012G20KT 23/17 A3014 RMK A01 T02320165  RH  069%=      5-min Rain = 0
KPT1 141155Z 03014G20KT 23/17 A3014 RMK A01 T02300165  RH  070%=      5-min Rain = 0
KPT1 141200Z 03012G17KT 23/17 A3014 RMK A01 T02280165  RH  071%=      5-min Rain = 0
KPT1 141205Z 03010KT 23/17 A3014 RMK A01 T02270165  RH  072%=      5-min Rain = 0
KPT1 141210Z 02010G15KT 23/17 A3015 RMK A01 T02260165  RH  072%=      5-min Rain = 0
KPT1 141215Z 02010G15KT 23/17 A3015 RMK A01 T02260165  RH  072%=      5-min Rain = 0
KPT1 141220Z 02010G16KT 23/17 A3015 RMK A01 T02260165  RH  072%=      5-min Rain = 0
KPT1 141225Z 02012G17KT 23/16 A3015 RMK A01 T02260163  RH  071%=      5-min Rain = 0
KPT1 141230Z 03011G16KT 23/16 A3015 RMK A01 T02250162  RH  070%=      5-min Rain = 0
KPT1 141235Z 03011KT 23/16 A3015 RMK A01 T02250160  RH  070%=      5-min Rain = 0
KPT1 141240Z 02012G18KT 23/16 A3016 RMK A01 T02260159  RH  069%=      5-min Rain = 0
KPT1 141245Z 03012G18KT 23/16 A3016 RMK A01 T02270157  RH  068%=      5-min Rain = 0
KPT1 141250Z 04013G18KT 23/16 A3016 RMK A01 T02260155  RH  067%=      5-min Rain = 0
KPT1 141255Z 03010KT 23/16 A3017 RMK A01 T02270155  RH  067%=      5-min Rain = 0
KPT1 141300Z 03009KT 23/16 A3017 RMK A01 T02280155  RH  066%=      5-min Rain = 0
KPT1 141305Z 03010KT 23/16 A3017 RMK A01 T02280155  RH  066%=      5-min Rain = 0
KPT1 141310Z 03010KT 23/16 A3017 RMK A01 T02290155  RH  066%=      5-min Rain = 0
KPT1 141315Z 02011KT 23/15 A3017 RMK A01 T02300154  RH  065%=      5-min Rain = 0
KPT1 141320Z 02011KT 23/15 A3018 RMK A01 T02310154  RH  065%=      5-min Rain = 0
KPT1 141325Z 02011KT 23/15 A3018 RMK A01 T02320153  RH  064%=      5-min Rain = 0
KPT1 141330Z 02010G15KT 23/15 A3018 RMK A01 T02340153  RH  063%=      5-min Rain = 0
KPT1 141335Z 02012G17KT 23/15 A3018 RMK A01 T02320152  RH  063%=      5-min Rain = 0
KPT1 141340Z 02012KT 23/15 A3018 RMK A01 T02340152  RH  063%=      5-min Rain = 0
KPT1 141345Z 02012KT 24/15 A3019 RMK A01 T02350152  RH  062%=      5-min Rain = 0
KPT1 141350Z 02012KT 24/15 A3019 RMK A01 T02360152  RH  062%=      5-min Rain = 0
KPT1 141355Z 02011KT 24/15 A3019 RMK A01 T02370153  RH  062%=      5-min Rain = 0
KPT1 141400Z 01011G17KT 24/15 A3019 RMK A01 T02420153  RH  060%=      5-min Rain = 0
KPT1 141405Z 02012G17KT 24/15 A3019 RMK A01 T02440153  RH  059%=      5-min Rain = 0
KPT1 141410Z 01013KT 25/15 A302 RMK A01 T02470153  RH  059%=      5-min Rain = 0
KPT1 141415Z 02012G17KT 25/15 A302 RMK A01 T02520154  RH  057%=      5-min Rain = 0
KPT1 141420Z 01012KT 25/15 A302 RMK A01 T02520153  RH  057%=      5-min Rain = 0
KPT1 141425Z 01013KT 25/15 A302 RMK A01 T02490153  RH  058%=      5-min Rain = 0
KPT1 141430Z 02014G19KT 25/15 A302 RMK A01 T02460153  RH  059%=      5-min Rain = 0
KPT1 141435Z 02013KT 25/15 A302 RMK A01 T02490154  RH  058%=      5-min Rain = 0
KPT1 141440Z 02013KT 25/15 A302 RMK A01 T02510154  RH  058%=      5-min Rain = 0
KPT1 141445Z 02012G17KT 26/16 A302 RMK A01 T02580155  RH  056%=      5-min Rain = 0
KPT1 141450Z 03014KT 26/16 A3019 RMK A01 T02630157  RH  054%=      5-min Rain = 0
KPT1 141455Z 02013KT 27/16 A3019 RMK A01 T02680158  RH  053%=      5-min Rain = 0
KPT1 141500Z 03015G20KT 27/16 A3019 RMK A01 T02690160  RH  054%=      5-min Rain = 0
KPT1 141505Z 03014KT 27/16 A3019 RMK A01 T02710161  RH  053%=      5-min Rain = 0
KPT1 141510Z 02013G18KT 27/16 A3019 RMK A01 T02720160  RH  053%=      5-min Rain = 0
KPT1 141515Z 02013KT 28/16 A3019 RMK A01 T02770160  RH  051%=      5-min Rain = 0
KPT1 141520Z 03013G18KT 28/16 A3019 RMK A01 T02770156  RH  050%=      5-min Rain = 0
KPT1 141525Z 03013G18KT 28/16 A302 RMK A01 T02800155  RH  049%=      5-min Rain = 0
KPT1 141530Z 02011KT 29/15 A302 RMK A01 T02860154  RH  047%=      5-min Rain = 0
KPT1 141535Z 04012G17KT 28/15 A302 RMK A01 T02840153  RH  047%=      5-min Rain = 0
KPT1 141540Z 04011G16KT 29/15 A302 RMK A01 T02930151  RH  044%=      5-min Rain = 0
KPT1 141545Z 05011G16KT 29/15 A3019 RMK A01 T02900150  RH  044%=      5-min Rain = 0
KPT1 141550Z 05011KT 29/15 A3019 RMK A01 T02940148  RH  043%=      5-min Rain = 0
KPT1 141555Z 03011KT 30/15 A3019 RMK A01 T02980149  RH  042%=      5-min Rain = 0
KPT1 141600Z 05011G16KT 30/15 A3019 RMK A01 T02990149  RH  042%=      5-min Rain = 0
KPT1 141605Z 05012G18KT 30/15 A3019 RMK A01 T03030149  RH  041%=      5-min Rain = 0
KPT1 141610Z 05010G16KT 30/15 A3019 RMK A01 T03030150  RH  041%=      5-min Rain = 0
KPT1 141615Z 05012G18KT 31/15 A3019 RMK A01 T03050149  RH  041%=      5-min Rain = 0
KPT1 141620Z 05011G17KT 31/15 A3019 RMK A01 T03050149  RH  041%=      5-min Rain = 0
KPT1 141625Z 05014KT 31/15 A3019 RMK A01 T03070149  RH  040%=      5-min Rain = 0
KPT1 141630Z 05013G21KT 31/15 A3019 RMK A01 T03130148  RH  038%=      5-min Rain = 0
KPT1 141635Z 04013KT 31/15 A3018 RMK A01 T03100147  RH  039%=      5-min Rain = 0
KPT1 141640Z 04014G19KT 31/15 A3018 RMK A01 T03080148  RH  039%=      5-min Rain = 0
KPT1 141645Z 05011G18KT 31/15 A3018 RMK A01 T03100150  RH  040%=      5-min Rain = 0
KPT1 141650Z 05010G17KT 31/15 A3018 RMK A01 T03120148  RH  039%=      5-min Rain = 0
KPT1 141655Z 04013G18KT 31/15 A3018 RMK A01 T03130148  RH  039%=      5-min Rain = 0
KPT1 141700Z 05014G19KT 32/15 A3017 RMK A01 T03160146  RH  037%=      5-min Rain = 0
KPT1 141705Z 04012G19KT 31/15 A3017 RMK A01 T03130148  RH  038%=      5-min Rain = 0
KPT1 141710Z 04013G18KT 31/15 A3017 RMK A01 T03140148  RH  038%=      5-min Rain = 0
KPT1 141715Z 06013G18KT 32/15 A3017 RMK A01 T03200148  RH  037%=      5-min Rain = 0
KPT1 141720Z 06009KT 32/15 A3017 RMK A01 T03240149  RH  036%=      5-min Rain = 0
KPT1 141725Z 05013G18KT 32/14 A3016 RMK A01 T03240143  RH  035%=      5-min Rain = 0
KPT1 141730Z 05010G16KT 32/14 A3016 RMK A01 T03220144  RH  036%=      5-min Rain = 0
KPT1 141735Z 06009G15KT 33/15 A3015 RMK A01 T03260146  RH  035%=      5-min Rain = 0
KPT1 141740Z 06009G16KT 33/14 A3015 RMK A01 T03280143  RH  034%=      5-min Rain = 0
KPT1 141745Z 06009G16KT 33/15 A3015 RMK A01 T03280146  RH  035%=      5-min Rain = 0
KPT1 141750Z 08010G16KT 33/14 A3014 RMK A01 T03270141  RH  034%=      5-min Rain = 0
KPT1 141755Z 09008G15KT 33/14 A3014 RMK A01 T03280142  RH  034%=      5-min Rain = 0
KPT1 141800Z 07011KT 33/13 A3014 RMK A01 T03300134  RH  032%=      5-min Rain = 0
KPT1 141805Z 06008G17KT 33/14 A3014 RMK A01 T03340135  RH  031%=      5-min Rain = 0
KPT1 141810Z 07012KT 34/13 A3013 RMK A01 T03400126  RH  029%=      5-min Rain = 0
KPT1 141815Z 05012G18KT 34/12 A3013 RMK A01 T03390119  RH  027%=      5-min Rain = 0
KPT1 141820Z 06010G17KT 34/12 A3013 RMK A01 T03430124  RH  028%=      5-min Rain = 0
KPT1 141825Z 06011G19KT 34/12 A3013 RMK A01 T03420124  RH  028%=      5-min Rain = 0
KPT1 141830Z 07012G18KT 35/12 A3012 RMK A01 T03480117  RH  026%=      5-min Rain = 0
KPT1 141835Z 07012G21KT 34/12 A3012 RMK A01 T03440116  RH  026%=      5-min Rain = 0
KPT1 141840Z 07011G18KT 35/12 A3012 RMK A01 T03460120  RH  026%=      5-min Rain = 0
KPT1 141845Z 08012G18KT 35/12 A3012 RMK A01 T03490118  RH  026%=      5-min Rain = 0
KPT1 141850Z 08011G20KT 35/12 A3012 RMK A01 T03480117  RH  026%=      5-min Rain = 0
KPT1 141855Z 08011G18KT 35/11 A3012 RMK A01 T03510113  RH  025%=      5-min Rain = 0
KPT1 141900Z 07011G17KT 35/11 A3011 RMK A01 T03530113  RH  024%=      5-min Rain = 0
KPT1 141905Z 09009G14KT 36/12 A3012 RMK A01 T03590115  RH  024%=      5-min Rain = 0
KPT1 141910Z 09015G20KT 36/11 A3011 RMK A01 T03550110  RH  024%=      5-min Rain = 0
KPT1 141915Z 08009G15KT 35/11 A3011 RMK A01 T03510114  RH  025%=      5-min Rain = 0
KPT1 141920Z 08012G19KT 36/12 A3011 RMK A01 T03570115  RH  024%=      5-min Rain = 0
KPT1 141925Z 08011G16KT 36/11 A3011 RMK A01 T03550109  RH  023%=      5-min Rain = 0
KPT1 141930Z 07013G19KT 36/10 A3011 RMK A01 T03630104  RH  022%=      5-min Rain = 0
KPT1 141935Z 07014G20KT 36/10 A3011 RMK A01 T03600104  RH  022%=      5-min Rain = 0
KPT1 141940Z 07012G17KT 36/10 A3011 RMK A01 T03580100  RH  022%=      5-min Rain = 0
KPT1 141945Z 06010G18KT 37/10 A301 RMK A01 T03650098  RH  020%=      5-min Rain = 0
KPT1 141950Z 06013G20KT 36/09 A301 RMK A01 T03640092  RH  020%=      5-min Rain = 0
KPT1 141955Z 07012G21KT 37/09 A301 RMK A01 T03670091  RH  019%=      5-min Rain = 0
KPT1 142000Z 06013G20KT 36/09 A301 RMK A01 T03640090  RH  019%=      5-min Rain = 0
KPT1 142005Z 07011G17KT 37/09 A3009 RMK A01 T03660092  RH  020%=      5-min Rain = 0
KPT1 142010Z 05012G17KT 37/09 A3009 RMK A01 T03680094  RH  020%=      5-min Rain = 0
KPT1 142015Z 05008G18KT 37/10 A3008 RMK A01 T03650098  RH  021%=      5-min Rain = 0
KPT1 142020Z 06016G21KT 37/09 A3008 RMK A01 T03660092  RH  020%=      5-min Rain = 0
KPT1 142025Z 05011G19KT 36/10 A3008 RMK A01 T03630096  RH  020%=      5-min Rain = 0
KPT1 142030Z 06010G18KT 37/09 A3008 RMK A01 T03680092  RH  019%=      5-min Rain = 0
KPT1 142035Z 05010G15KT 37/09 A3007 RMK A01 T03740089  RH  018%=      5-min Rain = 0
KPT1 142040Z 04013G19KT 37/08 A3007 RMK A01 T03710080  RH  017%=      5-min Rain = 0
KPT1 142045Z 05011G18KT 37/08 A3007 RMK A01 T03690083  RH  018%=      5-min Rain = 0
KPT1 142050Z 05013G19KT 37/08 A3006 RMK A01 T03700082  RH  018%=      5-min Rain = 0
KPT1 142055Z 04009KT 37/09 A3006 RMK A01 T03670087  RH  019%=      5-min Rain = 0
KPT1 142100Z 07010G15KT 37/09 A3006 RMK A01 T03710088  RH  019%=      5-min Rain = 0
KPT1 142105Z 05013G20KT 37/09 A3006 RMK A01 T03720087  RH  018%=      5-min Rain = 0
KPT1 142110Z 05014G20KT 37/09 A3006 RMK A01 T03650092  RH  020%=      5-min Rain = 0
KPT1 142115Z 05011G17KT 37/09 A3005 RMK A01 T03680090  RH  019%=      5-min Rain = 0
KPT1 142120Z 07007G13KT 37/09 A3005 RMK A01 T03660094  RH  020%=      5-min Rain = 0
KPT1 142125Z 08010G16KT 37/10 A3005 RMK A01 T03690099  RH  020%=      5-min Rain = 0
KPT1 142130Z 08012G18KT 37/10 A3004 RMK A01 T03650102  RH  021%=      5-min Rain = 0
KPT1 142135Z 07010G16KT 37/10 A3004 RMK A01 T03670100  RH  020%=      5-min Rain = 0
KPT1 142140Z 09013G19KT 37/10 A3004 RMK A01 T03650099  RH  021%=      5-min Rain = 0
KPT1 142145Z 08010G17KT 37/10 A3004 RMK A01 T03660096  RH  020%=      5-min Rain = 0
KPT1 142150Z 06007KT 37/09 A3004 RMK A01 T03660093  RH  020%=      5-min Rain = 0
KPT1 142155Z 05006G11KT 37/10 A3004 RMK A01 T03680095  RH  020%=      5-min Rain = 0
KPT1 142200Z 05008G13KT 37/10 A3004 RMK A01 T03680102  RH  021%=      5-min Rain = 0
KPT1 142205Z 07012G19KT 37/11 A3004 RMK A01 T03680106  RH  021%=      5-min Rain = 0
KPT1 142210Z 08010G16KT 36/11 A3004 RMK A01 T03630107  RH  022%=      5-min Rain = 0
KPT1 142215Z 07007G12KT 36/11 A3004 RMK A01 T03640106  RH  022%=      5-min Rain = 0
KPT1 142220Z 08010G15KT 36/11 A3004 RMK A01 T03630108  RH  022%=      5-min Rain = 0
KPT1 142225Z 10008G13KT 36/11 A3003 RMK A01 T03630108  RH  022%=      5-min Rain = 0
KPT1 142230Z 09011G18KT 37/11 A3003 RMK A01 T03650107  RH  022%=      5-min Rain = 0
KPT1 142235Z 07009G17KT 36/11 A3003 RMK A01 T03640105  RH  022%=      5-min Rain = 0
KPT1 142240Z 06010G17KT 37/10 A3003 RMK A01 T03660103  RH  021%=      5-min Rain = 0
KPT1 142245Z 09005G10KT 37/11 A3003 RMK A01 T03650106  RH  022%=      5-min Rain = 0
KPT1 142250Z 07010KT 37/11 A3003 RMK A01 T03670107  RH  022%=      5-min Rain = 0
KPT1 142255Z 08009G14KT 37/11 A3003 RMK A01 T03660107  RH  022%=      5-min Rain = 0
KPT1 142300Z 09008KT 36/11 A3004 RMK A01 T03620107  RH  022%=      5-min Rain = 0
KPT1 142305Z 07010G15KT 36/11 A3004 RMK A01 T03640107  RH  022%=      5-min Rain = 0
KPT1 142310Z 08008G13KT 36/11 A3004 RMK A01 T03600107  RH  022%=      5-min Rain = 0
KPT1 142315Z 06011KT 36/11 A3004 RMK A01 T03580108  RH  023%=      5-min Rain = 0
KPT1 142320Z 07009G14KT 36/11 A3004 RMK A01 T03600109  RH  023%=      5-min Rain = 0
KPT1 142325Z 10013G19KT 36/11 A3003 RMK A01 T03590110  RH  023%=      5-min Rain = 0
KPT1 142330Z 09012G18KT 36/11 A3004 RMK A01 T03560109  RH  023%=      5-min Rain = 0
KPT1 142335Z 10010G15KT 36/11 A3003 RMK A01 T03560107  RH  023%=      5-min Rain = 0
KPT1 142340Z 09009G14KT 36/11 A3003 RMK A01 T03560105  RH  023%=      5-min Rain = 0
KPT1 142345Z 07010KT 36/10 A3003 RMK A01 T03550104  RH  023%=      5-min Rain = 0
KPT1 142350Z 08011G16KT 36/11 A3003 RMK A01 T03560110  RH  023%=      5-min Rain = 0
KPT1 142355Z 08011G16KT 35/11 A3003 RMK A01 T03520111  RH  024%=      5-min Rain = 0
KPT1 150000Z 08009KT 35/11 A3003 RMK A01 T03510112  RH  024%=      5-min Rain = 0
KPT1 150005Z 10008KT 35/11 A3003 RMK A01 T03510113  RH  025%=      5-min Rain = 0
KPT1 150010Z 07009KT 35/11 A3003 RMK A01 T03500113  RH  025%=      5-min Rain = 0
KPT1 150015Z 09009KT 35/12 A3003 RMK A01 T03500115  RH  025%=      5-min Rain = 0
KPT1 150020Z 08012KT 35/12 A3003 RMK A01 T03470120  RH  026%=      5-min Rain = 0
KPT1 150025Z 09009KT 35/12 A3003 RMK A01 T03450119  RH  026%=      5-min Rain = 0
KPT1 150030Z 08009G15KT 34/12 A3003 RMK A01 T03430120  RH  027%=      5-min Rain = 0
KPT1 150035Z 09007KT 34/12 A3004 RMK A01 T03430120  RH  027%=      5-min Rain = 0
KPT1 150040Z 10009KT 34/12 A3004 RMK A01 T03410118  RH  027%=      5-min Rain = 0
KPT1 150045Z 09009G14KT 34/12 A3004 RMK A01 T03370119  RH  028%=      5-min Rain = 0
KPT1 150050Z 08008KT 34/12 A3004 RMK A01 T03360120  RH  028%=      5-min Rain = 0
KPT1 150055Z 09007KT 34/12 A3004 RMK A01 T03360122  RH  028%=      5-min Rain = 0
KPT1 150100Z 08007KT 34/12 A3004 RMK A01 T03350121  RH  028%=      5-min Rain = 0
KPT1 150105Z 08008KT 33/12 A3004 RMK A01 T03330123  RH  029%=      5-min Rain = 0
KPT1 150110Z 09008KT 33/12 A3005 RMK A01 T03310123  RH  029%=      5-min Rain = 0
KPT1 150115Z 10007KT 33/12 A3005 RMK A01 T03290124  RH  030%=      5-min Rain = 0
KPT1 150120Z 10008KT 33/13 A3005 RMK A01 T03270125  RH  030%=      5-min Rain = 0
KPT1 150125Z 10009KT 33/13 A3005 RMK A01 T03250126  RH  031%=      5-min Rain = 0
KPT1 150130Z 10009KT 32/13 A3005 RMK A01 T03230129  RH  032%=      5-min Rain = 0
KPT1 150135Z 11009KT 32/13 A3005 RMK A01 T03210131  RH  033%=      5-min Rain = 0
KPT1 150140Z 11009KT 32/13 A3006 RMK A01 T03190133  RH  033%=      5-min Rain = 0
KPT1 150145Z 10009KT 32/13 A3006 RMK A01 T03180134  RH  034%=      5-min Rain = 0
KPT1 150150Z 10008KT 32/13 A3006 RMK A01 T03160134  RH  034%=      5-min Rain = 0
KPT1 150155Z 10009KT 32/13 A3007 RMK A01 T03160134  RH  034%=      5-min Rain = 0
KPT1 150200Z 10008KT 31/13 A3007 RMK A01 T03140134  RH  035%=      5-min Rain = 0
KPT1 150205Z 10008KT 31/13 A3007 RMK A01 T03120134  RH  035%=      5-min Rain = 0
KPT1 150210Z 10008KT 31/13 A3008 RMK A01 T03110134  RH  035%=      5-min Rain = 0
KPT1 150215Z 10008KT 31/13 A3008 RMK A01 T03090134  RH  036%=      5-min Rain = 0
KPT1 150220Z 10007KT 31/14 A3008 RMK A01 T03070135  RH  036%=      5-min Rain = 0
KPT1 150225Z 10007KT 31/14 A3009 RMK A01 T03070135  RH  037%=      5-min Rain = 0
KPT1 150230Z 11007KT 31/14 A3009 RMK A01 T03050135  RH  037%=      5-min Rain = 0
KPT1 150235Z 11007KT 30/14 A3009 RMK A01 T03030136  RH  037%=      5-min Rain = 0
KPT1 150240Z 11006KT 30/14 A3009 RMK A01 T03020136  RH  038%=      5-min Rain = 0
KPT1 150245Z 11006KT 30/14 A301 RMK A01 T02990136  RH  038%=      5-min Rain = 0
KPT1 150250Z 11006KT 30/14 A301 RMK A01 T02980137  RH  039%=      5-min Rain = 0
KPT1 150255Z 10006KT 30/14 A301 RMK A01 T02970137  RH  039%=      5-min Rain = 0
KPT1 150300Z 10006KT 30/14 A301 RMK A01 T02970137  RH  039%=      5-min Rain = 0
KPT1 150305Z 10006KT 30/14 A301 RMK A01 T02970137  RH  039%=      5-min Rain = 0
KPT1 150310Z 09006KT 30/14 A3011 RMK A01 T02960138  RH  040%=      5-min Rain = 0
KPT1 150315Z 10006KT 30/14 A3011 RMK A01 T02950138  RH  040%=      5-min Rain = 0
KPT1 150320Z 09006KT 29/14 A3011 RMK A01 T02930138  RH  040%=      5-min Rain = 0
KPT1 150325Z 10006KT 29/14 A3011 RMK A01 T02930139  RH  041%=      5-min Rain = 0
KPT1 150330Z 10005KT 29/14 A3011 RMK A01 T02920139  RH  041%=      5-min Rain = 0
KPT1 150335Z 10005KT 29/14 A3011 RMK A01 T02890140  RH  042%=      5-min Rain = 0
KPT1 150340Z 11006KT 29/14 A3011 RMK A01 T02880141  RH  042%=      5-min Rain = 0
KPT1 150345Z 11005KT 29/14 A3011 RMK A01 T02870142  RH  043%=      5-min Rain = 0
KPT1 150350Z 11006KT 29/14 A3012 RMK A01 T02870143  RH  043%=      5-min Rain = 0
KPT1 150355Z 11006KT 29/14 A3012 RMK A01 T02860144  RH  044%=      5-min Rain = 0
KPT1 150400Z 10006KT 29/14 A3012 RMK A01 T02850144  RH  044%=      5-min Rain = 0
KPT1 150405Z 10006KT 29/15 A3012 RMK A01 T02850145  RH  044%=      5-min Rain = 0
KPT1 150410Z 10006KT 28/15 A3012 RMK A01 T02840145  RH  045%=      5-min Rain = 0
KPT1 150415Z 10005KT 28/15 A3012 RMK A01 T02830146  RH  045%=      5-min Rain = 0
KPT1 150420Z 10006KT 28/15 A3012 RMK A01 T02820146  RH  045%=      5-min Rain = 0
KPT1 150425Z 10006KT 28/15 A3012 RMK A01 T02810147  RH  046%=      5-min Rain = 0
KPT1 150430Z 10006KT 28/15 A3012 RMK A01 T02800147  RH  046%=      5-min Rain = 0
KPT1 150435Z 10006KT 28/15 A3012 RMK A01 T02800147  RH  046%=      5-min Rain = 0
KPT1 150440Z 11006KT 28/15 A3012 RMK A01 T02780148  RH  047%=      5-min Rain = 0
KPT1 150445Z 11006KT 28/15 A3012 RMK A01 T02790148  RH  047%=      5-min Rain = 0
KPT1 150450Z 11006KT 28/15 A3012 RMK A01 T02780149  RH  047%=      5-min Rain = 0
KPT1 150455Z 10006KT 28/15 A3013 RMK A01 T02770149  RH  048%=      5-min Rain = 0

Page generated in 0.009 seconds.